Time;durP1;ratioP1;P1;durP2;ratioP2;P2;SDS_P1;SDS_P2;PMS_P1;PMS_P2;Temp;Humidity;BMP_temperature;BMP_pressure;BME280_temperature;BME280_humidity;BME280_pressure;Samples;Min_cycle;Max_cycle;Signal;HPM_P1;HPM_P2
2021/12/23 00:01:34;;;;;;;19.25;6.75;;;-1.90;99.90;;;;;;5023537;28;20376;-77
2021/12/23 00:04:00;;;;;;;25.13;7.40;;;-1.90;99.90;;;;;;5023000;28;20467;-76
2021/12/23 00:06:38;;;;;;;20.98;6.85;;;-2.00;99.90;;;;;;5024655;28;20037;-78
2021/12/23 00:09:14;;;;;;;22.45;7.60;;;-1.90;99.90;;;;;;5023373;28;20036;-77
2021/12/23 00:11:40;;;;;;;19.75;7.63;;;-1.90;99.90;;;;;;5023153;28;20026;-76
2021/12/23 00:14:09;;;;;;;15.25;5.47;;;-1.90;99.90;;;;;;5023726;28;20026;-76
2021/12/23 00:16:55;;;;;;;18.63;6.70;;;-1.90;99.90;;;;;;5034254;28;20026;-77
2021/12/23 00:19:35;;;;;;;11.25;4.05;;;-2.00;99.90;;;;;;5043277;28;20032;-76
2021/12/23 00:24:45;;;;;;;21.48;7.07;;;-2.00;99.90;;;;;;5044540;28;20052;-76
2021/12/23 00:27:12;;;;;;;18.77;7.07;;;-2.00;99.90;;;;;;5042793;28;20030;-77
2021/12/23 00:29:39;;;;;;;25.90;6.93;;;-2.00;99.90;;;;;;5037439;28;20459;-77
2021/12/23 00:32:07;;;;;;;18.13;6.25;;;-2.00;99.90;;;;;;5024473;28;20045;-79
2021/12/23 00:34:33;;;;;;;18.00;6.18;;;-2.00;99.90;;;;;;5022348;28;20062;-77
2021/12/23 00:37:01;;;;;;;21.48;7.25;;;-2.00;99.90;;;;;;5024782;28;20041;-78
2021/12/23 00:39:28;;;;;;;16.00;5.63;;;-2.00;99.90;;;;;;5023396;28;20030;-77
2021/12/23 00:41:55;;;;;;;23.90;7.68;;;-2.00;99.90;;;;;;5024711;28;20048;-77
2021/12/23 00:44:21;;;;;;;15.20;6.60;;;-2.00;99.90;;;;;;5022603;28;20029;-76
2021/12/23 00:46:46;;;;;;;24.20;5.72;;;-2.00;99.90;;;;;;5022967;28;20591;-78
2021/12/23 00:49:16;;;;;;;18.13;6.22;;;-2.00;99.90;;;;;;5024483;28;20054;-78
2021/12/23 00:51:42;;;;;;;19.95;7.25;;;-2.00;99.90;;;;;;5023221;28;20095;-76
2021/12/23 00:54:07;;;;;;;22.77;7.68;;;-1.90;99.90;;;;;;5024478;28;20026;-76
2021/12/23 00:56:36;;;;;;;20.10;7.05;;;-1.90;99.90;;;;;;5022263;28;20034;-76
2021/12/23 00:59:06;;;;;;;21.98;7.00;;;-1.80;99.90;;;;;;5022577;28;20041;-74
2021/12/23 01:01:32;;;;;;;16.42;6.65;;;-1.70;99.90;;;;;;5024692;28;20037;-76
2021/12/23 01:03:58;;;;;;;18.55;6.70;;;-1.80;99.90;;;;;;5024426;28;20030;-75
2021/12/23 01:06:23;;;;;;;20.33;6.93;;;-1.70;99.90;;;;;;5024345;28;20121;-76
2021/12/23 01:08:49;;;;;;;22.05;6.95;;;-1.70;99.90;;;;;;5026376;28;20053;-75
2021/12/23 01:11:15;;;;;;;20.92;6.15;;;-1.70;99.90;;;;;;5027980;28;20082;-77
2021/12/23 01:13:47;;;;;;;15.02;6.25;;;-1.70;99.90;;;;;;5027348;28;20085;-75
2021/12/23 01:16:25;;;;;;;22.15;7.40;;;-1.70;99.90;;;;;;5027712;28;20078;-76
2021/12/23 01:18:54;;;;;;;17.35;6.03;;;-1.60;99.90;;;;;;5027037;28;20030;-76
2021/12/23 01:21:19;;;;;;;20.67;7.03;;;-1.70;99.90;;;;;;5027844;28;20468;-75
2021/12/23 01:23:57;;;;;;;24.98;7.53;;;-1.60;99.90;;;;;;5026616;28;20074;-77
2021/12/23 01:26:24;;;;;;;18.15;6.63;;;-1.60;99.90;;;;;;5027851;28;20124;-75
2021/12/23 01:28:58;;;;;;;22.83;6.70;;;-1.60;99.90;;;;;;5027093;28;20022;-76
2021/12/23 01:31:26;;;;;;;22.52;8.25;;;-1.60;99.90;;;;;;5027846;28;20040;-76
2021/12/23 01:33:59;;;;;;;19.10;6.47;;;-1.60;99.90;;;;;;5027360;28;20018;-78
2021/12/23 01:36:34;;;;;;;21.08;6.05;;;-1.40;99.90;;;;;;5027340;28;20026;-77
2021/12/23 01:38:59;;;;;;;18.30;6.80;;;-1.50;99.90;;;;;;5027504;28;20022;-75
2021/12/23 01:41:28;;;;;;;21.60;7.82;;;-1.50;99.90;;;;;;5026914;28;20025;-76
2021/12/23 01:43:54;;;;;;;19.15;6.93;;;-1.50;99.90;;;;;;5025640;28;20026;-76
2021/12/23 01:46:23;;;;;;;16.30;6.45;;;-1.50;99.90;;;;;;5025949;28;20425;-76
2021/12/23 01:48:49;;;;;;;23.80;6.85;;;-1.40;99.90;;;;;;5025777;28;20057;-76
2021/12/23 01:51:15;;;;;;;20.65;6.70;;;-1.40;99.90;;;;;;5027051;28;20037;-76
2021/12/23 01:53:41;;;;;;;16.83;6.72;;;-1.40;99.90;;;;;;5025386;28;20030;-74
2021/12/23 01:56:07;;;;;;;21.70;7.70;;;-1.40;99.90;;;;;;5025825;28;20026;-74
2021/12/23 01:58:37;;;;;;;19.08;6.85;;;-1.40;99.90;;;;;;5025548;28;20026;-76
2021/12/23 02:01:04;;;;;;;22.25;5.88;;;-1.40;99.90;;;;;;5026812;28;20117;-78
2021/12/23 02:03:30;;;;;;;19.60;6.97;;;-1.40;99.90;;;;;;5026742;28;20036;-76
2021/12/23 02:05:55;;;;;;;19.00;7.38;;;-1.40;99.90;;;;;;5026956;28;20084;-77
2021/12/23 02:08:21;;;;;;;15.38;6.10;;;-1.40;99.90;;;;;;5025611;28;20030;-76
2021/12/23 02:10:57;;;;;;;16.23;6.45;;;-1.40;99.90;;;;;;5026702;28;20038;-77
2021/12/23 02:13:23;;;;;;;20.35;7.03;;;-1.40;99.90;;;;;;5025206;28;20022;-75
2021/12/23 02:15:49;;;;;;;20.35;7.28;;;-1.30;99.90;;;;;;5025289;28;20036;-76
2021/12/23 02:18:14;;;;;;;14.13;5.95;;;-1.30;99.90;;;;;;5042751;28;20034;-76
2021/12/23 02:20:40;;;;;;;25.80;8.80;;;-1.30;99.90;;;;;;5033802;28;20026;-77
2021/12/23 02:23:09;;;;;;;29.70;7.03;;;-1.30;99.90;;;;;;5025991;28;20045;-77
2021/12/23 02:25:35;;;;;;;13.98;6.30;;;-1.30;99.90;;;;;;5024867;28;20060;-76
2021/12/23 02:28:07;;;;;;;18.63;6.57;;;-1.30;99.90;;;;;;5026678;28;20030;-78
2021/12/23 02:30:36;;;;;;;24.30;7.75;;;-1.30;99.90;;;;;;5026266;28;20140;-76
2021/12/23 02:33:07;;;;;;;19.08;6.18;;;-1.30;99.90;;;;;;5025168;28;20030;-77
2021/12/23 02:35:39;;;;;;;17.05;6.80;;;-1.30;99.90;;;;;;5025994;28;20029;-76
2021/12/23 02:38:05;;;;;;;19.15;7.20;;;-1.30;99.90;;;;;;5026314;28;20022;-78
2021/12/23 02:40:37;;;;;;;14.82;5.95;;;-1.30;99.90;;;;;;5034115;28;20021;-75
2021/12/23 02:43:11;;;;;;;21.35;6.85;;;-1.30;99.90;;;;;;5044991;28;20132;-75
2021/12/23 02:45:37;;;;;;;13.25;5.38;;;-1.30;99.90;;;;;;5045616;28;20095;-75
2021/12/23 02:48:13;;;;;;;13.93;5.15;;;-1.30;99.90;;;;;;5045632;28;20030;-78
2021/12/23 02:50:39;;;;;;;18.90;6.90;;;-1.30;99.90;;;;;;5046090;28;20028;-75
2021/12/23 02:53:04;;;;;;;27.20;7.57;;;-1.30;99.90;;;;;;5045279;28;20049;-76
2021/12/23 02:55:30;;;;;;;24.67;7.32;;;-1.30;99.90;;;;;;5045685;28;20052;-77
2021/12/23 02:57:56;;;;;;;23.83;6.28;;;-1.30;99.90;;;;;;5045985;28;20029;-75
2021/12/23 03:00:21;;;;;;;18.63;7.00;;;-1.30;99.90;;;;;;5044275;28;20481;-74
2021/12/23 03:02:47;;;;;;;18.58;7.28;;;-1.40;99.90;;;;;;5045642;28;20028;-76
2021/12/23 03:05:13;;;;;;;14.02;5.35;;;-1.40;99.90;;;;;;5044981;28;20052;-76
2021/12/23 03:07:38;;;;;;;13.63;5.88;;;-1.40;99.90;;;;;;5045577;28;20056;-76
2021/12/23 03:10:06;;;;;;;18.42;6.82;;;-1.40;99.90;;;;;;5045174;28;20029;-76
2021/12/23 03:12:32;;;;;;;28.63;9.60;;;-1.40;99.90;;;;;;5043679;28;20040;-77
2021/12/23 03:14:59;;;;;;;18.23;7.10;;;-1.40;99.90;;;;;;5045246;28;20021;-77
2021/12/23 03:17:35;;;;;;;24.60;8.32;;;-1.40;99.90;;;;;;5043945;28;20025;-78
2021/12/23 03:20:01;;;;;;;28.42;7.65;;;-1.30;99.90;;;;;;5043131;28;20025;-77
2021/12/23 03:22:27;;;;;;;17.15;7.07;;;-1.30;99.90;;;;;;5044243;28;20132;-76
2021/12/23 03:24:53;;;;;;;23.17;6.80;;;-1.30;99.90;;;;;;5045105;28;20042;-76
2021/12/23 03:27:22;;;;;;;20.38;6.68;;;-1.30;99.90;;;;;;5044498;28;20022;-76
2021/12/23 03:29:48;;;;;;;18.33;6.82;;;-1.40;99.90;;;;;;5044994;28;20156;-75
2021/12/23 03:32:13;;;;;;;14.80;7.13;;;-1.30;99.90;;;;;;5036876;28;20034;-76
2021/12/23 03:34:39;;;;;;;12.85;6.32;;;-1.30;99.90;;;;;;5024834;28;20029;-77
2021/12/23 03:37:04;;;;;;;22.02;7.32;;;-1.30;99.90;;;;;;5025245;28;20033;-78
2021/12/23 03:39:31;;;;;;;25.45;7.80;;;-1.30;99.90;;;;;;5024348;28;20032;-75
2021/12/23 03:41:57;;;;;;;14.80;5.40;;;-1.30;99.90;;;;;;5025156;28;20065;-78
2021/12/23 03:44:23;;;;;;;17.42;7.05;;;-1.30;99.90;;;;;;5024877;28;20077;-76
2021/12/23 03:46:48;;;;;;;20.05;7.03;;;-1.30;99.90;;;;;;5024611;28;20081;-79
2021/12/23 03:49:14;;;;;;;16.85;6.05;;;-1.30;99.90;;;;;;5024486;28;20029;-76
2021/12/23 03:51:39;;;;;;;23.38;7.68;;;-1.30;99.90;;;;;;5024990;28;20026;-78
2021/12/23 03:54:06;;;;;;;20.00;6.78;;;-1.30;99.90;;;;;;5024719;28;20030;-77
2021/12/23 03:56:44;;;;;;;18.25;6.03;;;-1.30;99.90;;;;;;5024871;28;20033;-78
2021/12/23 03:59:10;;;;;;;16.65;6.10;;;-1.30;99.90;;;;;;5023780;28;20061;-76
2021/12/23 04:01:36;;;;;;;16.85;7.03;;;-1.30;99.90;;;;;;5023694;28;20030;-77
2021/12/23 04:04:02;;;;;;;13.27;4.65;;;-1.40;99.90;;;;;;5024623;28;20032;-76
2021/12/23 04:06:29;;;;;;;15.15;5.40;;;-1.40;99.90;;;;;;5025088;28;20033;-77
2021/12/23 04:08:59;;;;;;;19.77;7.50;;;-1.40;99.90;;;;;;5023749;28;20060;-76
2021/12/23 04:11:25;;;;;;;17.45;6.65;;;-1.40;99.90;;;;;;5024870;28;20022;-76
2021/12/23 04:13:53;;;;;;;18.80;7.53;;;-1.40;99.90;;;;;;5024885;28;20022;-77
2021/12/23 04:16:19;;;;;;;18.00;7.03;;;-1.40;99.90;;;;;;5024867;28;20509;-78
2021/12/23 04:18:46;;;;;;;12.57;5.47;;;-1.40;99.90;;;;;;5024366;28;20065;-77
2021/12/23 04:21:13;;;;;;;14.48;4.97;;;-1.40;99.90;;;;;;5024650;28;20030;-77
2021/12/23 04:24:06;;;;;;;23.55;7.22;;;-1.30;99.90;;;;;;5023026;28;20056;-78
2021/12/23 04:26:36;;;;;;;22.77;6.93;;;-1.30;99.90;;;;;;5023914;28;20050;-76
2021/12/23 04:29:03;;;;;;;21.33;8.30;;;-1.30;99.90;;;;;;5024426;28;20029;-77
2021/12/23 04:31:29;;;;;;;16.52;6.85;;;-1.30;99.90;;;;;;5023938;28;20038;-76
2021/12/23 04:33:59;;;;;;;16.42;7.38;;;-1.30;99.90;;;;;;5023516;28;20037;-78
2021/12/23 04:36:27;;;;;;;18.75;6.93;;;-1.30;99.90;;;;;;5022582;28;20034;-76
2021/12/23 04:38:53;;;;;;;20.13;8.57;;;-1.30;99.90;;;;;;5024749;28;20029;-76
2021/12/23 04:41:20;;;;;;;19.85;7.97;;;-1.30;99.90;;;;;;5023114;28;20560;-76
2021/12/23 04:43:46;;;;;;;24.40;7.60;;;-1.30;99.90;;;;;;5026925;28;20394;-75
2021/12/23 04:46:11;;;;;;;23.73;7.32;;;-1.30;99.90;;;;;;5026579;28;20062;-75
2021/12/23 04:48:37;;;;;;;22.67;7.88;;;-1.30;99.90;;;;;;5027492;28;20395;-76
2021/12/23 04:51:04;;;;;;;22.15;6.15;;;-1.30;99.90;;;;;;5028369;28;20041;-76
2021/12/23 04:53:30;;;;;;;15.88;6.43;;;-1.30;99.90;;;;;;5028667;28;20030;-76
2021/12/23 04:55:56;;;;;;;19.02;7.13;;;-1.20;99.90;;;;;;5028173;28;20082;-75
2021/12/23 04:58:21;;;;;;;20.83;7.40;;;-1.20;99.90;;;;;;5027593;28;20080;-75
2021/12/23 05:00:55;;;;;;;19.02;6.47;;;-1.20;99.90;;;;;;5028147;28;20052;-77
2021/12/23 05:03:21;;;;;;;;;;;-1.10;99.90;;;;;;5026685;28;20026;-76
2021/12/23 05:05:47;;;;;;;21.65;7.22;;;-1.10;99.90;;;;;;5026657;28;19940;-75
2021/12/23 05:08:14;;;;;;;19.00;7.22;;;-1.10;99.90;;;;;;5026473;28;20128;-76
2021/12/23 05:10:41;;;;;;;20.08;6.97;;;-1.10;99.90;;;;;;5027546;28;20022;-75
2021/12/23 05:13:07;;;;;;;15.45;6.82;;;-1.10;99.90;;;;;;5026678;28;20369;-75
2021/12/23 05:15:32;;;;;;;19.42;7.72;;;-1.10;99.90;;;;;;5027744;28;20085;-75
2021/12/23 05:17:59;;;;;;;23.85;7.90;;;-1.10;99.90;;;;;;5027768;28;20038;-76
2021/12/23 05:20:25;;;;;;;15.30;6.65;;;-1.00;99.90;;;;;;5027934;28;20040;-76
2021/12/23 05:22:51;;;;;;;17.23;6.72;;;-1.00;99.90;;;;;;5027521;28;20085;-75
2021/12/23 05:25:17;;;;;;;19.38;7.70;;;-1.00;99.90;;;;;;5027397;28;20083;-75
2021/12/23 05:27:43;;;;;;;14.25;5.82;;;-1.00;99.90;;;;;;5027157;28;20049;-76
2021/12/23 05:30:13;;;;;;;17.35;6.80;;;-1.00;99.90;;;;;;5026062;28;20026;-77
2021/12/23 05:32:41;;;;;;;20.55;7.57;;;-1.00;99.90;;;;;;5027745;28;20029;-76
2021/12/23 05:35:07;;;;;;;19.15;7.10;;;-1.00;99.90;;;;;;5027434;28;20029;-75
2021/12/23 05:37:33;;;;;;;17.60;6.57;;;-0.90;99.90;;;;;;5025672;28;20034;-75
2021/12/23 05:40:03;;;;;;;18.13;7.63;;;-1.00;99.90;;;;;;5025745;28;20068;-75
2021/12/23 05:42:30;;;;;;;20.98;7.47;;;-1.00;99.90;;;;;;5025107;28;20026;-76
2021/12/23 05:44:55;;;;;;;17.60;7.03;;;-1.00;99.90;;;;;;5026863;28;20053;-76
2021/12/23 05:47:21;;;;;;;15.48;7.22;;;-0.90;99.90;;;;;;5027598;28;20030;-76
2021/12/23 05:49:47;;;;;;;19.88;7.65;;;-0.90;99.90;;;;;;5025985;28;20060;-76
2021/12/23 05:52:12;;;;;;;19.88;6.60;;;-0.90;99.90;;;;;;5027265;28;20060;-75
2021/12/23 05:54:38;;;;;;;19.83;6.57;;;-0.90;99.90;;;;;;5025540;28;20026;-77
2021/12/23 05:57:04;;;;;;;19.52;6.78;;;-0.90;99.90;;;;;;5026690;28;20034;-76
2021/12/23 05:59:31;;;;;;;17.70;6.18;;;-0.90;99.90;;;;;;5025175;28;20120;-77
2021/12/23 06:02:05;;;;;;;27.90;8.25;;;-0.80;99.90;;;;;;5026055;28;20026;-78
2021/12/23 06:04:34;;;;;;;20.05;7.18;;;-0.80;99.90;;;;;;5026639;28;20022;-77
2021/12/23 06:07:01;;;;;;;13.02;6.13;;;-0.80;99.90;;;;;;5025600;28;20080;-78
2021/12/23 06:09:27;;;;;;;21.77;8.38;;;-0.80;99.90;;;;;;5031269;28;20030;-78
2021/12/23 06:11:52;;;;;;;23.20;7.13;;;-0.80;99.90;;;;;;5045075;28;20098;-76
2021/12/23 06:14:21;;;;;;;18.95;7.18;;;-0.70;99.90;;;;;;5046149;28;20025;-76
2021/12/23 06:16:46;;;;;;;23.80;6.70;;;-0.70;99.90;;;;;;5046586;28;20061;-77
2021/12/23 06:19:12;;;;;;;20.58;7.15;;;-0.70;99.90;;;;;;5044189;28;20021;-74
2021/12/23 06:21:37;;;;;;;16.35;7.15;;;-0.70;99.90;;;;;;5035784;28;20109;-75
2021/12/23 06:24:13;;;;;;;11.95;5.82;;;-0.70;99.90;;;;;;5046346;28;20065;-75
2021/12/23 06:26:39;;;;;;;16.40;6.13;;;-0.60;99.90;;;;;;5030756;28;20042;-76
2021/12/23 06:29:05;;;;;;;19.08;6.63;;;-0.60;99.90;;;;;;5040382;28;20029;-75
2021/12/23 06:31:31;;;;;;;19.10;7.25;;;-0.60;99.90;;;;;;5044611;28;20092;-76
2021/12/23 06:33:57;;;;;;;20.85;6.95;;;-0.60;99.90;;;;;;5043583;28;20025;-75
2021/12/23 06:36:23;;;;;;;16.65;6.35;;;-0.60;99.90;;;;;;5029184;28;20034;-75
2021/12/23 06:38:48;;;;;;;24.40;8.35;;;-0.60;99.90;;;;;;5044521;28;20508;-76
2021/12/23 06:41:16;;;;;;;13.57;6.38;;;-0.60;99.90;;;;;;5046015;28;20025;-75
2021/12/23 06:43:51;;;;;;;17.35;7.00;;;-0.60;99.90;;;;;;5043393;28;20034;-76
2021/12/23 06:46:28;;;;;;;15.45;5.97;;;-0.70;99.90;;;;;;5032326;28;20041;-77
2021/12/23 06:48:55;;;;;;;23.60;7.55;;;-0.60;99.90;;;;;;5034225;28;20057;-76
2021/12/23 06:51:21;;;;;;;20.15;7.13;;;-0.60;99.90;;;;;;5024773;28;20030;-76
2021/12/23 06:53:47;;;;;;;19.15;7.00;;;-0.60;99.90;;;;;;5035538;28;20124;-75
2021/12/23 06:56:16;;;;;;;19.45;7.38;;;-0.60;99.90;;;;;;5041879;28;20030;-74
2021/12/23 06:58:54;;;;;;;22.92;8.75;;;-0.60;99.90;;;;;;5045460;28;20029;-74
2021/12/23 07:01:21;;;;;;;15.68;6.93;;;-0.60;99.90;;;;;;5045704;28;20025;-74
2021/12/23 07:06:30;;;;;;;21.35;6.75;;;-0.60;99.90;;;;;;5045087;28;20101;-75
2021/12/23 07:08:56;;;;;;;21.45;7.57;;;-0.60;99.90;;;;;;5044747;28;20061;-74
2021/12/23 07:11:28;;;;;;;23.23;8.00;;;-0.60;99.90;;;;;;5043599;28;20032;-75
2021/12/23 07:13:53;;;;;;;18.95;7.20;;;-0.60;99.90;;;;;;5037503;28;20037;-75
2021/12/23 07:16:19;;;;;;;19.45;6.30;;;-0.50;99.90;;;;;;5040414;28;20097;-76
2021/12/23 07:18:44;;;;;;;17.85;6.22;;;-0.50;99.90;;;;;;5028356;28;20021;-75
2021/12/23 07:21:10;;;;;;;16.00;6.97;;;-0.50;99.90;;;;;;5041101;28;20037;-75
2021/12/23 07:23:36;;;;;;;20.95;6.95;;;-0.50;99.90;;;;;;5038532;28;20038;-77
2021/12/23 07:26:01;;;;;;;17.15;7.22;;;-0.50;99.90;;;;;;5043095;28;20037;-75
2021/12/23 07:28:31;;;;;;;18.95;6.40;;;-0.50;99.90;;;;;;5043286;28;20026;-75
2021/12/23 07:31:01;;;;;;;15.38;6.15;;;-0.50;99.90;;;;;;5043614;28;20127;-77
2021/12/23 07:33:27;;;;;;;20.98;7.43;;;-0.50;99.90;;;;;;5043491;28;20037;-76
2021/12/23 07:35:52;;;;;;;19.08;7.63;;;-0.50;99.90;;;;;;5043778;28;20060;-75
2021/12/23 07:38:18;;;;;;;21.83;7.57;;;-0.40;99.90;;;;;;5043791;28;20043;-74
2021/12/23 07:40:44;;;;;;;26.05;8.75;;;-0.40;99.90;;;;;;5048165;28;20037;-75
2021/12/23 07:43:31;;;;;;;16.13;6.85;;;-0.40;99.90;;;;;;5026808;28;20037;-75
2021/12/23 07:45:56;;;;;;;24.42;7.30;;;-0.40;99.90;;;;;;5044326;28;20063;-74
2021/12/23 07:48:21;;;;;;;20.88;7.95;;;-0.40;99.90;;;;;;5045133;28;20029;-75
2021/12/23 07:50:47;;;;;;;20.33;8.35;;;-0.30;99.90;;;;;;5042671;28;20087;-76
2021/12/23 07:53:13;;;;;;;22.67;7.18;;;-0.30;99.90;;;;;;5042888;28;20038;-75
2021/12/23 07:55:42;;;;;;;18.85;7.55;;;-0.30;99.90;;;;;;5042359;28;20119;-75
2021/12/23 07:58:08;;;;;;;23.45;8.23;;;-0.30;99.90;;;;;;5030654;28;20041;-75
2021/12/23 08:00:34;;;;;;;20.63;7.43;;;-0.30;99.90;;;;;;5025850;28;20027;-77
2021/12/23 08:03:00;;;;;;;16.65;6.65;;;-0.30;99.90;;;;;;5040261;28;20025;-77
2021/12/23 08:05:25;;;;;;;19.40;7.78;;;-0.30;99.90;;;;;;5044059;28;20037;-75
2021/12/23 08:07:53;;;;;;;22.75;8.85;;;-0.20;99.90;;;;;;5043922;28;20083;-76
2021/12/23 08:10:19;;;;;;;21.67;8.13;;;-0.30;99.90;;;;;;5037910;28;20026;-75
2021/12/23 08:12:45;;;;;;;16.77;7.40;;;-0.20;99.90;;;;;;5024461;28;20109;-75
2021/12/23 08:15:11;;;;;;;17.52;7.15;;;-0.20;99.90;;;;;;5031646;28;20049;-75
2021/12/23 08:17:37;;;;;;;16.38;6.82;;;-0.20;99.90;;;;;;5037355;28;20029;-76
2021/12/23 08:20:05;;;;;;;20.77;7.10;;;-0.10;99.90;;;;;;5047174;28;20037;-76
2021/12/23 08:22:31;;;;;;;29.77;9.25;;;-0.10;99.90;;;;;;5048307;28;20053;-76
2021/12/23 08:24:57;;;;;;;20.88;7.95;;;-0.10;99.90;;;;;;5047120;28;20053;-76
2021/12/23 08:27:26;;;;;;;23.95;8.88;;;-0.10;99.90;;;;;;5044416;28;20014;-77
2021/12/23 08:29:53;;;;;;;21.67;7.70;;;-0.10;99.90;;;;;;5045580;28;20095;-75
2021/12/23 08:32:20;;;;;;;14.82;7.25;;;-0.10;99.90;;;;;;5043163;28;20059;-75
2021/12/23 08:34:46;;;;;;;21.17;7.65;;;0.00;99.90;;;;;;5047176;28;20030;-75
2021/12/23 08:37:12;;;;;;;22.25;8.18;;;-0.10;99.90;;;;;;5049014;28;20087;-76
2021/12/23 08:39:42;;;;;;;18.40;7.78;;;0.00;99.90;;;;;;5047506;28;20093;-76
2021/12/23 08:42:09;;;;;;;15.55;6.68;;;0.00;99.90;;;;;;5048052;28;20029;-75
2021/12/23 08:44:39;;;;;;;20.90;7.75;;;0.00;99.90;;;;;;5047548;28;20036;-77
2021/12/23 08:47:04;;;;;;;16.52;7.40;;;0.00;99.90;;;;;;5048382;28;20040;-76
2021/12/23 08:49:30;;;;;;;22.90;7.68;;;0.00;99.90;;;;;;5047486;28;20034;-76
2021/12/23 08:51:56;;;;;;;20.35;7.18;;;0.00;99.90;;;;;;5046977;28;20025;-76
2021/12/23 08:54:22;;;;;;;15.60;6.85;;;-0.10;99.90;;;;;;5047800;28;20056;-74
2021/12/23 08:56:47;;;;;;;20.77;8.55;;;-0.10;99.90;;;;;;5047071;28;20029;-75
2021/12/23 08:59:13;;;;;;;16.83;6.53;;;-0.10;99.90;;;;;;5036909;28;20067;-75
2021/12/23 09:01:40;;;;;;;21.25;6.70;;;-0.10;99.90;;;;;;5041024;28;20025;-75
2021/12/23 09:04:06;;;;;;;18.58;6.93;;;-0.10;99.90;;;;;;5042784;28;20021;-76
2021/12/23 09:06:32;;;;;;;22.65;8.25;;;-0.10;99.90;;;;;;5040617;28;20049;-75
2021/12/23 09:09:04;;;;;;;18.10;7.60;;;-0.10;99.90;;;;;;5041283;28;20029;-76
2021/12/23 09:11:34;;;;;;;14.65;6.97;;;-0.10;99.90;;;;;;5040380;28;20037;-76
2021/12/23 09:14:00;;;;;;;18.40;8.18;;;-0.10;99.90;;;;;;5027984;28;20054;-75
2021/12/23 09:16:26;;;;;;;15.77;7.10;;;-0.10;99.90;;;;;;5026668;28;20022;-76
2021/12/23 09:18:54;;;;;;;18.73;7.32;;;0.00;99.90;;;;;;5028916;28;20509;-76
2021/12/23 09:21:20;;;;;;;20.55;7.70;;;0.00;99.90;;;;;;5042969;28;20029;-76
2021/12/23 09:23:46;;;;;;;18.67;7.30;;;0.00;99.90;;;;;;5037359;28;20049;-77
2021/12/23 09:26:12;;;;;;;21.77;8.70;;;0.10;99.90;;;;;;5040281;28;20720;-76
2021/12/23 09:28:57;;;;;;;18.55;6.97;;;0.10;99.90;;;;;;5046609;28;20033;-77
2021/12/23 09:34:09;;;;;;;23.08;7.03;;;0.20;99.90;;;;;;5047209;28;20033;-76
2021/12/23 09:36:36;;;;;;;17.23;7.97;;;0.20;99.90;;;;;;5047135;28;20030;-75
2021/12/23 09:39:04;;;;;;;19.52;8.82;;;0.20;99.90;;;;;;5061808;28;20033;-76
2021/12/23 09:41:32;;;;;;;17.10;6.88;;;0.30;99.90;;;;;;5047571;28;20039;-76
2021/12/23 09:44:00;;;;;;;17.90;7.55;;;0.30;99.90;;;;;;5039490;28;20055;-75
2021/12/23 09:46:26;;;;;;;19.33;8.35;;;0.30;99.90;;;;;;5027746;28;20049;-74
2021/12/23 09:48:52;;;;;;;25.40;7.13;;;0.40;99.90;;;;;;5031056;28;20036;-75
2021/12/23 09:51:20;;;;;;;20.38;7.05;;;0.40;99.90;;;;;;5025703;28;20040;-74
2021/12/23 09:53:56;;;;;;;23.33;8.60;;;0.40;99.90;;;;;;5041151;28;20030;-77
2021/12/23 09:56:22;;;;;;;19.02;8.07;;;0.40;99.90;;;;;;5038360;28;20033;-76
2021/12/23 09:58:48;;;;;;;19.83;7.47;;;0.40;99.90;;;;;;5045573;28;20021;-78
2021/12/23 10:01:17;;;;;;;21.08;7.60;;;0.40;99.90;;;;;;5049423;28;20032;-77
2021/12/23 10:03:43;;;;;;;21.55;8.02;;;0.50;99.90;;;;;;5043264;28;20037;-77
2021/12/23 10:06:10;;;;;;;25.83;8.93;;;0.50;99.90;;;;;;5043572;28;20061;-76
2021/12/23 10:08:39;;;;;;;28.70;8.85;;;0.50;99.90;;;;;;5044641;28;20094;-77
2021/12/23 10:38:56;;;;;;;24.40;9.45;;;0.70;99.90;;;;;;5036706;28;20540;-76
2021/12/23 10:41:27;;;;;;;26.77;10.38;;;0.60;99.90;;;;;;5030274;28;20069;-76
2021/12/23 10:43:53;;;;;;;25.00;9.10;;;0.60;99.90;;;;;;5045099;28;20038;-76
2021/12/23 10:46:29;;;;;;;19.05;7.70;;;0.70;99.90;;;;;;5043317;28;20086;-77
2021/12/23 10:52:05;;;;;;;18.27;7.65;;;0.70;99.90;;;;;;5028597;28;20040;-76
2021/12/23 11:00:30;;;;;;;21.13;7.13;;;0.70;99.90;;;;;;5024746;28;20057;-77
2021/12/23 11:03:32;;;;;;;19.38;8.02;;;0.80;99.90;;;;;;5023809;28;20030;-74
2021/12/23 11:09:10;;;;;;;17.77;7.40;;;0.80;99.90;;;;;;5029457;28;20036;-75
2021/12/23 11:32:25;;;;;;;24.48;9.48;;;1.00;99.90;;;;;;5024214;28;20061;-75
2021/12/23 11:42:16;;;;;;;29.02;9.48;;;1.10;99.90;;;;;;5042632;28;20040;-75
2021/12/23 11:44:42;;;;;;;33.40;10.57;;;1.20;99.90;;;;;;5041830;28;20032;-77
2021/12/23 11:47:14;;;;;;;32.63;10.35;;;1.20;99.90;;;;;;5041943;28;20778;-78
2021/12/23 11:49:43;;;;;;;29.92;9.77;;;1.20;99.90;;;;;;5042645;28;20025;-77
2021/12/23 11:52:08;;;;;;;37.00;10.73;;;1.30;99.90;;;;;;5043849;28;20021;-77
2021/12/23 11:54:41;;;;;;;31.45;9.73;;;1.30;99.90;;;;;;5042287;28;20032;-77
2021/12/23 11:57:15;;;;;;;32.22;9.70;;;1.30;99.90;;;;;;5043602;28;20433;-78
2021/12/23 11:59:45;;;;;;;21.73;9.02;;;1.30;99.90;;;;;;5043248;28;20029;-76
2021/12/23 12:02:21;;;;;;;29.35;10.13;;;1.30;99.90;;;;;;5043528;28;20025;-77
2021/12/23 12:04:58;;;;;;;22.73;10.15;;;1.30;99.90;;;;;;5041894;28;20030;-77
2021/12/23 12:07:24;;;;;;;27.00;9.20;;;1.30;99.90;;;;;;5036082;28;20026;-76
2021/12/23 12:10:21;;;;;;;33.10;9.63;;;1.30;99.90;;;;;;5048910;28;20099;-79
2021/12/23 12:13:01;;;;;;;27.88;11.15;;;1.30;99.90;;;;;;5016817;28;20041;-78
2021/12/23 12:15:39;;;;;;;24.08;9.68;;;1.30;99.90;;;;;;5025360;28;20033;-77
2021/12/23 12:18:11;;;;;;;26.55;10.05;;;1.30;99.90;;;;;;5034622;28;20040;-79
2021/12/23 12:20:51;;;;;;;21.02;8.60;;;1.30;99.90;;;;;;5035093;28;20033;-78
2021/12/23 12:23:34;;;;;;;23.98;10.18;;;1.30;99.90;;;;;;5041690;28;20203;-75
2021/12/23 12:26:05;;;;;;;26.15;10.35;;;1.30;99.90;;;;;;5025356;28;20426;-76
2021/12/23 12:28:45;;;;;;;26.15;10.55;;;1.40;99.90;;;;;;5043934;28;20045;-77
2021/12/23 12:31:15;;;;;;;26.55;9.43;;;1.30;99.90;;;;;;5042312;28;20057;-76
2021/12/23 12:33:43;;;;;;;23.25;8.88;;;1.40;99.90;;;;;;5041787;28;20032;-79
2021/12/23 12:36:16;;;;;;;23.38;8.48;;;1.40;99.90;;;;;;5041501;28;20071;-79
2021/12/23 12:39:11;;;;;;;26.90;10.63;;;1.40;99.90;;;;;;5043565;28;20033;-78
2021/12/23 12:41:38;;;;;;;28.38;9.43;;;1.40;99.90;;;;;;5044325;28;20028;-78
2021/12/23 12:44:31;;;;;;;31.80;10.85;;;1.30;99.90;;;;;;5044270;28;20049;-77
2021/12/23 12:47:17;;;;;;;19.17;9.27;;;1.30;99.90;;;;;;5042454;28;20034;-78
2021/12/23 12:49:47;;;;;;;20.95;7.90;;;1.30;99.90;;;;;;5044315;28;20025;-80
2021/12/23 12:52:19;;;;;;;29.13;9.45;;;1.30;99.90;;;;;;5043872;28;20492;-78
2021/12/23 12:54:53;;;;;;;28.65;10.05;;;1.30;99.90;;;;;;5042112;28;20029;-78
2021/12/23 12:57:20;;;;;;;;;;;1.20;99.90;;;;;;5042530;28;20088;-78
2021/12/23 12:59:49;;;;;;;27.65;8.73;;;1.20;99.90;;;;;;5043918;28;19997;-77
2021/12/23 13:02:23;;;;;;;26.73;8.90;;;1.20;99.90;;;;;;5042242;28;20474;-78
2021/12/23 13:04:52;;;;;;;24.25;9.98;;;1.20;99.90;;;;;;5046582;28;20064;-81
2021/12/23 13:07:36;;;;;;;32.90;8.88;;;1.20;99.90;;;;;;5046008;28;20465;-78
2021/12/23 13:10:15;;;;;;;29.83;10.57;;;1.20;99.90;;;;;;5047705;28;20428;-81
2021/12/23 13:12:50;;;;;;;31.05;11.07;;;1.20;99.90;;;;;;5062515;28;20033;-80
2021/12/23 13:15:19;;;;;;;23.75;8.57;;;1.20;99.90;;;;;;5061917;28;20033;-78
2021/12/23 13:17:51;;;;;;;24.38;9.73;;;1.10;99.90;;;;;;5045069;28;20108;-79
2021/12/23 13:20:17;;;;;;;21.42;8.25;;;1.10;99.90;;;;;;5044895;28;20025;-75
2021/12/23 13:22:45;;;;;;;23.25;9.52;;;1.10;99.90;;;;;;5046608;28;20056;-79
2021/12/23 13:25:11;;;;;;;25.17;11.90;;;1.10;99.90;;;;;;5040162;28;20037;-78
2021/12/23 13:27:41;;;;;;;32.72;10.77;;;1.10;99.90;;;;;;5040203;28;20030;-80
2021/12/23 13:30:10;;;;;;;26.80;11.18;;;1.10;99.90;;;;;;5026718;28;20057;-81
2021/12/23 13:32:37;;;;;;;24.85;10.20;;;1.10;99.90;;;;;;5041860;28;20041;-77
2021/12/23 13:35:12;;;;;;;31.02;10.65;;;1.10;99.90;;;;;;5027191;28;20053;-78
2021/12/23 13:37:43;;;;;;;31.48;11.52;;;1.10;99.90;;;;;;5037322;28;20041;-79
2021/12/23 13:40:10;;;;;;;30.25;9.93;;;1.10;99.90;;;;;;5026607;28;20041;-79
2021/12/23 13:42:40;;;;;;;31.77;12.60;;;1.10;99.90;;;;;;5024690;28;20053;-80
2021/12/23 13:45:09;;;;;;;36.03;12.07;;;1.10;99.90;;;;;;5026773;28;20049;-83
2021/12/23 13:47:36;;;;;;;32.45;11.15;;;1.20;99.90;;;;;;5033359;28;20080;-80
2021/12/23 13:50:05;;;;;;;39.05;11.13;;;1.20;99.90;;;;;;5039657;28;20030;-77
2021/12/23 13:52:41;;;;;;;31.63;11.05;;;1.10;99.90;;;;;;5045528;28;20056;-79
2021/12/23 13:55:12;;;;;;;26.00;9.65;;;1.10;99.90;;;;;;5045455;28;20030;-78
2021/12/23 13:57:51;;;;;;;42.05;11.30;;;1.10;99.90;;;;;;5044648;28;20461;-77
2021/12/23 14:00:25;;;;;;;27.65;10.80;;;1.20;99.90;;;;;;5045760;28;20022;-75
2021/12/23 14:03:02;;;;;;;33.95;11.90;;;1.10;99.90;;;;;;5044817;28;20044;-76
2021/12/23 14:05:28;;;;;;;28.40;11.80;;;1.10;99.90;;;;;;5044966;28;20030;-76